createdAt,value
2022-07-31T00:00:24.716Z,26.96
2022-07-31T00:01:24.744Z,26.94
2022-07-31T00:02:24.756Z,26.93
2022-07-31T00:03:24.853Z,26.96
2022-07-31T00:04:24.790Z,26.94
2022-07-31T00:05:24.816Z,26.94
2022-07-31T00:06:24.837Z,26.94
2022-07-31T00:07:24.834Z,26.94
2022-07-31T00:08:24.880Z,26.94
2022-07-31T00:09:52.521Z,26.93
2022-07-31T00:10:24.862Z,26.91
2022-07-31T00:11:24.886Z,26.93
2022-07-31T00:12:25.132Z,26.93
2022-07-31T00:13:57.097Z,26.93
2022-07-31T00:14:24.923Z,26.93
2022-07-31T00:15:24.966Z,26.93
2022-07-31T00:16:24.944Z,26.91
2022-07-31T00:17:24.966Z,26.91
2022-07-31T00:18:24.988Z,26.93
2022-07-31T00:19:25.003Z,26.90
2022-07-31T00:20:25.060Z,26.91
2022-07-31T00:21:25.008Z,26.88
2022-07-31T00:22:25.038Z,26.90
2022-07-31T00:23:25.074Z,26.90
2022-07-31T00:24:25.082Z,26.90
2022-07-31T00:25:25.115Z,26.90
2022-07-31T00:26:25.121Z,26.87
2022-07-31T00:27:25.157Z,26.88
2022-07-31T00:28:25.186Z,26.88
2022-07-31T00:29:25.168Z,26.88
2022-07-31T00:30:25.194Z,26.88
2022-07-31T00:31:25.224Z,26.88
2022-07-31T00:32:25.243Z,26.87
2022-07-31T00:33:25.251Z,26.87
2022-07-31T00:34:25.234Z,26.87
2022-07-31T00:35:25.259Z,26.87
2022-07-31T00:36:29.078Z,26.87
2022-07-31T00:37:25.293Z,26.86
2022-07-31T00:38:26.867Z,26.86
2022-07-31T00:39:25.328Z,26.84
2022-07-31T00:40:25.360Z,26.84
2022-07-31T00:41:25.367Z,26.84
2022-07-31T00:42:25.389Z,26.84
2022-07-31T00:43:27.516Z,26.83
2022-07-31T00:44:25.452Z,26.84
2022-07-31T00:45:29.294Z,26.84
2022-07-31T00:46:25.482Z,26.84
2022-07-31T00:47:25.813Z,26.84
2022-07-31T00:48:25.531Z,26.81
2022-07-31T00:49:25.581Z,26.81
2022-07-31T00:50:25.549Z,26.83
2022-07-31T00:51:25.513Z,26.81
2022-07-31T00:52:25.541Z,26.81
2022-07-31T00:53:25.561Z,26.79
2022-07-31T00:54:25.530Z,26.79
2022-07-31T00:55:25.563Z,26.79
2022-07-31T00:56:25.605Z,26.79
2022-07-31T00:57:25.619Z,26.78
2022-07-31T00:58:25.654Z,26.78
2022-07-31T00:59:25.660Z,26.79
2022-07-31T01:00:25.659Z,26.78
2022-07-31T01:01:25.761Z,26.76
2022-07-31T01:02:25.699Z,26.78
2022-07-31T01:03:25.696Z,26.76
2022-07-31T01:04:25.720Z,26.78
2022-07-31T01:05:25.734Z,26.78
2022-07-31T01:06:25.768Z,26.76
2022-07-31T01:07:25.983Z,26.76
2022-07-31T01:08:25.747Z,26.78
2022-07-31T01:09:25.761Z,26.75
2022-07-31T01:10:25.817Z,26.76
2022-07-31T01:11:25.825Z,26.73
2022-07-31T01:12:25.869Z,26.75
2022-07-31T01:13:25.852Z,26.75
2022-07-31T01:14:25.883Z,26.75
2022-07-31T01:15:25.854Z,26.73
2022-07-31T01:16:25.878Z,26.73
2022-07-31T01:17:25.879Z,26.73
2022-07-31T01:18:25.910Z,26.73
2022-07-31T01:19:42.213Z,26.72
2022-07-31T01:20:25.973Z,26.72
2022-07-31T01:21:26.001Z,26.71
2022-07-31T01:22:33.063Z,26.71
2022-07-31T01:23:26.020Z,26.69
2022-07-31T01:24:26.038Z,26.72
2022-07-31T01:25:26.065Z,26.71
2022-07-31T01:26:26.060Z,26.71
2022-07-31T01:27:26.097Z,26.71
2022-07-31T01:28:26.101Z,26.69
2022-07-31T01:29:26.117Z,26.71
2022-07-31T01:30:30.476Z,26.71
2022-07-31T01:31:27.400Z,26.69
2022-07-31T01:32:27.523Z,26.71
2022-07-31T01:33:26.172Z,26.71
2022-07-31T01:34:26.195Z,26.69
2022-07-31T01:35:26.236Z,26.69
2022-07-31T01:36:26.204Z,26.71
2022-07-31T01:37:26.246Z,26.71
2022-07-31T01:38:26.217Z,26.69
2022-07-31T01:39:26.237Z,26.68
2022-07-31T01:40:26.264Z,26.68
2022-07-31T01:41:26.244Z,26.68
2022-07-31T01:42:26.261Z,26.66
2022-07-31T01:43:26.244Z,26.66
2022-07-31T01:44:26.285Z,26.66
2022-07-31T01:45:26.263Z,26.68
2022-07-31T01:46:26.286Z,26.66
2022-07-31T01:47:26.323Z,26.66
2022-07-31T01:48:26.342Z,26.65
2022-07-31T01:49:26.407Z,26.66
2022-07-31T01:50:43.235Z,26.68
2022-07-31T01:51:26.404Z,26.65
2022-07-31T01:52:26.438Z,26.66
2022-07-31T01:53:26.436Z,26.65
2022-07-31T01:54:26.469Z,26.65
2022-07-31T01:55:26.489Z,26.65
2022-07-31T01:56:26.544Z,26.66
2022-07-31T01:57:26.551Z,26.65
2022-07-31T01:58:26.556Z,26.66
2022-07-31T01:59:26.552Z,26.66
2022-07-31T02:00:33.912Z,26.65
2022-07-31T02:01:27.381Z,26.65
2022-07-31T02:02:26.625Z,26.65
2022-07-31T02:03:43.023Z,26.64
2022-07-31T02:04:26.641Z,26.64
2022-07-31T02:05:26.652Z,26.64
2022-07-31T02:06:26.679Z,26.61
2022-07-31T02:07:26.704Z,26.64
2022-07-31T02:08:26.737Z,26.64
2022-07-31T02:09:26.735Z,26.61
2022-07-31T02:10:26.773Z,26.64
2022-07-31T02:11:26.792Z,26.61
2022-07-31T02:12:33.778Z,26.61
2022-07-31T02:13:26.856Z,26.60
2022-07-31T02:14:26.849Z,26.61
2022-07-31T02:15:26.863Z,26.61
2022-07-31T02:16:26.863Z,26.60
2022-07-31T02:17:26.918Z,26.61
2022-07-31T02:18:26.915Z,26.60
2022-07-31T02:19:26.899Z,26.60
2022-07-31T02:20:26.892Z,26.61
2022-07-31T02:21:26.928Z,26.60
2022-07-31T02:22:27.321Z,26.60
2022-07-31T02:23:27.045Z,26.59
2022-07-31T02:24:26.943Z,26.60
2022-07-31T02:25:26.965Z,26.59
2022-07-31T02:26:26.997Z,26.59
2022-07-31T02:27:53.648Z,26.59
2022-07-31T02:28:27.031Z,26.59
2022-07-31T02:29:27.051Z,26.57
2022-07-31T02:30:27.092Z,26.59
2022-07-31T02:31:27.123Z,26.57
2022-07-31T02:32:27.129Z,26.57
2022-07-31T02:33:27.139Z,26.59
2022-07-31T02:34:29.192Z,26.57
2022-07-31T02:35:27.223Z,26.57
2022-07-31T02:36:27.171Z,26.56
2022-07-31T02:37:27.198Z,26.56
2022-07-31T02:38:27.226Z,26.56
2022-07-31T02:39:30.429Z,26.57
2022-07-31T02:40:27.228Z,26.54
2022-07-31T02:41:27.241Z,26.56
2022-07-31T02:42:27.273Z,26.54
2022-07-31T02:43:27.277Z,26.57
2022-07-31T02:44:27.415Z,26.57
2022-07-31T02:45:27.328Z,26.56
2022-07-31T02:46:27.358Z,26.57
2022-07-31T02:47:27.356Z,26.57
2022-07-31T02:48:27.587Z,26.56
2022-07-31T02:49:27.450Z,26.56
2022-07-31T02:50:27.358Z,26.56
2022-07-31T02:51:27.349Z,26.56
2022-07-31T02:52:27.355Z,26.54
2022-07-31T02:53:27.397Z,26.57
2022-07-31T02:54:27.414Z,26.56
2022-07-31T02:55:27.435Z,26.56
2022-07-31T02:56:27.451Z,26.56
2022-07-31T02:57:27.504Z,26.54
2022-07-31T02:58:27.491Z,26.54
2022-07-31T02:59:27.458Z,26.54
2022-07-31T03:00:27.505Z,26.54
2022-07-31T03:01:27.578Z,26.53
2022-07-31T03:02:34.639Z,26.54
2022-07-31T03:03:27.531Z,26.53
2022-07-31T03:04:27.550Z,26.54
2022-07-31T03:05:27.578Z,26.53
2022-07-31T03:06:27.577Z,26.53
2022-07-31T03:07:27.595Z,26.54
2022-07-31T03:08:27.644Z,26.53
2022-07-31T03:09:27.649Z,26.51
2022-07-31T03:10:27.699Z,26.51
2022-07-31T03:11:27.719Z,26.51
2022-07-31T03:12:27.736Z,26.51
2022-07-31T03:13:27.740Z,26.51
2022-07-31T03:14:32.833Z,26.51
2022-07-31T03:15:27.773Z,26.51
2022-07-31T03:16:27.794Z,26.50
2022-07-31T03:17:37.993Z,26.51
2022-07-31T03:18:27.858Z,26.50
2022-07-31T03:19:27.903Z,26.51
2022-07-31T03:20:27.865Z,26.50
2022-07-31T03:21:27.905Z,26.50
2022-07-31T03:22:27.898Z,26.50
2022-07-31T03:23:27.914Z,26.50
2022-07-31T03:24:27.950Z,26.50
2022-07-31T03:25:27.981Z,26.49
2022-07-31T03:26:28.002Z,26.49
2022-07-31T03:27:28.021Z,26.49
2022-07-31T03:28:28.042Z,26.49
2022-07-31T03:29:42.431Z,26.49
2022-07-31T03:30:28.081Z,26.50
2022-07-31T03:31:28.074Z,26.49
2022-07-31T03:32:28.087Z,26.47
2022-07-31T03:33:28.049Z,26.46
2022-07-31T03:34:28.081Z,26.47
2022-07-31T03:35:28.123Z,26.47
2022-07-31T03:36:28.105Z,26.49
2022-07-31T03:37:28.160Z,26.46
2022-07-31T03:38:39.131Z,26.49
2022-07-31T03:39:28.181Z,26.47
2022-07-31T03:40:28.194Z,26.44
2022-07-31T03:41:28.225Z,26.47
2022-07-31T03:42:28.241Z,26.47
2022-07-31T03:43:28.267Z,26.46
2022-07-31T03:44:28.314Z,26.46
2022-07-31T03:45:28.277Z,26.46
2022-07-31T03:46:28.302Z,26.46
2022-07-31T03:47:28.302Z,26.44
2022-07-31T03:48:28.330Z,26.44
2022-07-31T03:49:28.438Z,26.46
2022-07-31T03:50:28.304Z,26.44
2022-07-31T03:51:28.314Z,26.44
2022-07-31T03:52:28.331Z,26.46
2022-07-31T03:53:28.364Z,26.44
2022-07-31T03:54:28.370Z,26.46
2022-07-31T03:55:28.414Z,26.44
2022-07-31T03:56:28.410Z,26.44
2022-07-31T03:57:29.599Z,26.42
2022-07-31T03:58:28.457Z,26.44
2022-07-31T03:59:29.798Z,26.44
2022-07-31T04:00:28.484Z,26.44
2022-07-31T04:01:28.529Z,26.44
2022-07-31T04:02:28.673Z,26.44
2022-07-31T04:03:28.537Z,26.44
2022-07-31T04:04:28.559Z,26.42
2022-07-31T04:05:28.577Z,26.42
2022-07-31T04:06:28.587Z,26.44
2022-07-31T04:07:28.598Z,26.44
2022-07-31T04:08:28.630Z,26.42
2022-07-31T04:09:28.649Z,26.44
2022-07-31T04:10:28.711Z,26.44
2022-07-31T04:11:28.677Z,26.42
2022-07-31T04:12:28.706Z,26.44
2022-07-31T04:13:28.740Z,26.42
2022-07-31T04:14:28.765Z,26.46
2022-07-31T04:15:28.798Z,26.44
2022-07-31T04:16:28.824Z,26.44
2022-07-31T04:17:30.657Z,26.46
2022-07-31T04:18:28.849Z,26.44
2022-07-31T04:19:28.847Z,26.44
2022-07-31T04:20:28.880Z,26.44
2022-07-31T04:21:28.864Z,26.44
2022-07-31T04:22:28.900Z,26.42
2022-07-31T04:23:32.252Z,26.44
2022-07-31T04:24:28.921Z,26.46
2022-07-31T04:25:28.950Z,26.44
2022-07-31T04:26:28.962Z,26.46
2022-07-31T04:27:28.991Z,26.44
2022-07-31T04:28:29.013Z,26.46
2022-07-31T04:29:29.040Z,26.46
2022-07-31T04:30:29.080Z,26.46
2022-07-31T04:31:29.062Z,26.44
2022-07-31T04:32:29.111Z,26.44
2022-07-31T04:33:29.096Z,26.44
2022-07-31T04:34:29.135Z,26.46
2022-07-31T04:35:29.157Z,26.46
2022-07-31T04:36:29.668Z,26.46
2022-07-31T04:37:29.200Z,26.44
2022-07-31T04:38:29.176Z,26.47
2022-07-31T04:39:29.209Z,26.47
2022-07-31T04:40:29.235Z,26.46
2022-07-31T04:41:29.261Z,26.47
2022-07-31T04:42:29.240Z,26.47
2022-07-31T04:43:29.247Z,26.47
2022-07-31T04:44:29.278Z,26.47
2022-07-31T04:45:29.289Z,26.49
2022-07-31T04:46:29.319Z,26.49
2022-07-31T04:47:29.330Z,26.46
2022-07-31T04:48:29.343Z,26.47
2022-07-31T04:49:29.466Z,26.47
2022-07-31T04:50:29.392Z,26.47
2022-07-31T04:51:29.361Z,26.50
2022-07-31T04:52:29.377Z,26.50
2022-07-31T04:53:29.399Z,26.50
2022-07-31T04:54:29.418Z,26.49
2022-07-31T04:55:29.450Z,26.49
2022-07-31T04:56:29.478Z,26.50
2022-07-31T04:57:29.498Z,26.50
2022-07-31T04:58:29.517Z,26.51
2022-07-31T04:59:59.504Z,26.50
2022-07-31T05:00:29.527Z,26.51
2022-07-31T05:01:29.701Z,26.53
2022-07-31T05:02:29.546Z,26.51
2022-07-31T05:03:29.609Z,26.53
2022-07-31T05:04:29.575Z,26.53
2022-07-31T05:05:29.649Z,26.54
2022-07-31T05:06:29.614Z,26.54
2022-07-31T05:07:29.640Z,26.53
2022-07-31T05:08:29.694Z,26.54
2022-07-31T05:09:29.676Z,26.54
2022-07-31T05:10:29.677Z,26.56
2022-07-31T05:11:29.685Z,26.56
2022-07-31T05:12:29.736Z,26.57
2022-07-31T05:13:29.714Z,26.57
2022-07-31T05:14:29.740Z,26.57
2022-07-31T05:15:29.772Z,26.59
2022-07-31T05:16:29.794Z,26.59
2022-07-31T05:17:29.838Z,26.60
2022-07-31T05:18:29.847Z,26.59
2022-07-31T05:19:29.893Z,26.60
2022-07-31T05:20:29.892Z,26.61
2022-07-31T05:21:29.893Z,26.60
2022-07-31T05:22:29.938Z,26.61
2022-07-31T05:23:29.957Z,26.64
2022-07-31T05:24:33.150Z,26.64
2022-07-31T05:25:29.919Z,26.64
2022-07-31T05:26:29.939Z,26.64
2022-07-31T05:27:31.945Z,26.65
2022-07-31T05:28:30.342Z,26.64
2022-07-31T05:29:29.987Z,26.65
2022-07-31T05:30:30.806Z,26.65
2022-07-31T05:31:30.004Z,26.66
2022-07-31T05:32:29.971Z,26.65
2022-07-31T05:33:30.009Z,26.68
2022-07-31T05:34:30.559Z,26.68
2022-07-31T05:35:30.025Z,26.68
2022-07-31T05:36:30.039Z,26.69
2022-07-31T05:37:30.045Z,26.69
2022-07-31T05:38:30.098Z,26.71
2022-07-31T05:39:30.062Z,26.71
2022-07-31T05:40:30.113Z,26.71
2022-07-31T05:41:30.135Z,26.72
2022-07-31T05:42:30.139Z,26.72
2022-07-31T05:43:30.169Z,26.73
2022-07-31T05:44:30.185Z,26.72
2022-07-31T05:45:30.201Z,26.73
2022-07-31T05:46:30.246Z,26.75
2022-07-31T05:47:40.232Z,26.75
2022-07-31T05:48:30.238Z,26.76
2022-07-31T05:49:30.328Z,26.75
2022-07-31T05:50:30.265Z,26.75
2022-07-31T05:51:30.304Z,26.75
2022-07-31T05:52:30.346Z,26.75
2022-07-31T05:53:30.338Z,26.75
2022-07-31T05:54:30.367Z,26.76
2022-07-31T05:55:30.345Z,26.75
2022-07-31T05:56:30.365Z,26.76
2022-07-31T05:57:33.514Z,26.76
2022-07-31T05:58:30.436Z,26.76
2022-07-31T05:59:30.403Z,26.78
2022-07-31T06:00:30.411Z,26.79
2022-07-31T06:01:30.552Z,26.81
2022-07-31T06:02:30.421Z,26.81
2022-07-31T06:03:30.393Z,26.83
2022-07-31T06:04:30.425Z,26.83
2022-07-31T06:05:30.439Z,26.83
2022-07-31T06:06:30.464Z,26.84
2022-07-31T06:07:30.510Z,26.86
2022-07-31T06:08:30.487Z,26.86
2022-07-31T06:09:30.513Z,26.86
2022-07-31T06:10:30.558Z,26.87
2022-07-31T06:11:30.618Z,26.87
2022-07-31T06:12:30.603Z,26.87
2022-07-31T06:13:30.610Z,26.88
2022-07-31T06:14:30.641Z,26.88
2022-07-31T06:15:35.780Z,26.90
2022-07-31T06:16:30.728Z,26.88
2022-07-31T06:17:40.319Z,26.90
2022-07-31T06:18:30.699Z,26.90
2022-07-31T06:19:30.729Z,26.93
2022-07-31T06:20:30.761Z,26.91
2022-07-31T06:21:31.119Z,26.96
2022-07-31T06:22:30.771Z,26.96
2022-07-31T06:23:32.398Z,26.97
2022-07-31T06:24:30.775Z,26.94
2022-07-31T06:25:32.037Z,26.97
2022-07-31T06:26:30.810Z,26.96
2022-07-31T06:27:33.872Z,26.97
2022-07-31T06:28:43.239Z,26.96
2022-07-31T06:29:41.806Z,26.97
2022-07-31T06:30:30.880Z,26.98
2022-07-31T06:31:30.913Z,27.01
2022-07-31T06:32:30.900Z,27.01
2022-07-31T06:33:37.402Z,27.01
2022-07-31T06:34:30.994Z,27.01
2022-07-31T06:35:30.941Z,27.02
2022-07-31T06:36:30.933Z,27.01
2022-07-31T06:37:30.958Z,27.02
2022-07-31T06:38:30.983Z,27.02
2022-07-31T06:39:54.115Z,27.03
2022-07-31T06:40:31.012Z,27.03
2022-07-31T06:41:31.038Z,27.05
2022-07-31T06:42:31.091Z,27.06
2022-07-31T06:43:31.065Z,27.05
2022-07-31T06:44:31.067Z,27.08
2022-07-31T06:45:50.974Z,27.08
2022-07-31T06:46:31.091Z,27.09
2022-07-31T06:47:31.119Z,27.11
2022-07-31T06:48:31.189Z,27.12
2022-07-31T06:49:31.185Z,27.11
2022-07-31T06:50:31.196Z,27.13
2022-07-31T06:51:32.125Z,27.15
2022-07-31T06:52:31.180Z,27.15
2022-07-31T06:53:31.203Z,27.15
2022-07-31T06:54:31.236Z,27.16
2022-07-31T06:55:31.280Z,27.20
2022-07-31T06:56:31.250Z,27.20
2022-07-31T06:57:31.286Z,27.23
2022-07-31T06:58:31.307Z,27.24
2022-07-31T06:59:39.846Z,27.24
2022-07-31T07:00:31.379Z,27.24
2022-07-31T07:01:31.467Z,27.27
2022-07-31T07:02:31.373Z,27.25
2022-07-31T07:03:31.353Z,27.30
2022-07-31T07:05:06.116Z,27.28
2022-07-31T07:05:31.401Z,27.31
2022-07-31T07:06:31.438Z,27.33
2022-07-31T07:07:31.733Z,27.33
2022-07-31T07:08:31.433Z,27.34
2022-07-31T07:09:31.454Z,27.35
2022-07-31T07:10:31.479Z,27.38
2022-07-31T07:11:31.459Z,27.38
2022-07-31T07:12:31.493Z,27.39
2022-07-31T07:13:45.240Z,27.40
2022-07-31T07:14:31.536Z,27.40
2022-07-31T07:15:31.566Z,27.40
2022-07-31T07:16:31.568Z,27.42
2022-07-31T07:17:31.540Z,27.42
2022-07-31T07:18:31.537Z,27.45
2022-07-31T07:19:31.588Z,27.43
2022-07-31T07:20:31.631Z,27.43
2022-07-31T07:21:31.601Z,27.43
2022-07-31T07:22:32.347Z,27.45
2022-07-31T07:23:31.633Z,27.45
2022-07-31T07:24:31.645Z,27.45
2022-07-31T07:25:31.662Z,27.43
2022-07-31T07:26:31.697Z,27.45
2022-07-31T07:27:31.680Z,27.43
2022-07-31T07:28:31.787Z,27.45
2022-07-31T07:29:31.721Z,27.48
2022-07-31T07:30:31.726Z,27.48
2022-07-31T07:31:31.740Z,27.49
2022-07-31T07:32:31.762Z,27.49
2022-07-31T07:33:40.604Z,27.52
2022-07-31T07:34:31.832Z,27.53
2022-07-31T07:35:34.111Z,27.58
2022-07-31T07:36:31.833Z,27.62
2022-07-31T07:37:31.842Z,27.61
2022-07-31T07:38:31.869Z,27.65
2022-07-31T07:39:31.883Z,27.68
2022-07-31T07:40:31.940Z,27.68
2022-07-31T07:41:31.925Z,27.71
2022-07-31T07:42:31.945Z,27.74
2022-07-31T07:43:31.971Z,27.78
2022-07-31T07:44:31.975Z,27.80
2022-07-31T07:45:32.005Z,27.81
2022-07-31T07:46:32.019Z,27.84
2022-07-31T07:47:53.842Z,27.84
2022-07-31T07:48:32.017Z,27.86
2022-07-31T07:49:32.076Z,27.87
2022-07-31T07:50:32.030Z,27.90
2022-07-31T07:51:32.020Z,27.90
2022-07-31T07:52:32.030Z,27.91
2022-07-31T07:53:32.033Z,27.95
2022-07-31T07:54:32.043Z,27.93
2022-07-31T07:55:37.452Z,27.95
2022-07-31T07:56:32.105Z,27.96
2022-07-31T07:57:32.076Z,27.98
2022-07-31T07:58:32.092Z,27.99
2022-07-31T07:59:32.105Z,28.01
2022-07-31T08:00:32.145Z,27.99
2022-07-31T08:01:32.192Z,28.01
2022-07-31T08:02:32.132Z,28.02
2022-07-31T08:03:49.879Z,28.05
2022-07-31T08:04:32.174Z,28.05
2022-07-31T08:05:32.196Z,28.06
2022-07-31T08:06:32.227Z,28.08
2022-07-31T08:07:42.183Z,28.11
2022-07-31T08:08:32.286Z,28.11
2022-07-31T08:09:32.313Z,28.13
2022-07-31T08:10:32.331Z,28.15
2022-07-31T08:11:32.357Z,28.15
2022-07-31T08:12:32.414Z,28.15
2022-07-31T08:13:32.401Z,28.17
2022-07-31T08:14:32.438Z,28.18
2022-07-31T08:15:32.412Z,28.20
2022-07-31T08:16:32.441Z,28.21
2022-07-31T08:17:32.455Z,28.21
2022-07-31T08:18:32.482Z,28.21
2022-07-31T08:19:32.463Z,28.21
2022-07-31T08:20:32.476Z,28.21
2022-07-31T08:21:32.565Z,28.23
2022-07-31T08:22:32.522Z,28.21
2022-07-31T08:23:32.559Z,28.24
2022-07-31T08:24:32.589Z,28.24
2022-07-31T08:25:32.619Z,28.24
2022-07-31T08:26:32.657Z,28.24
2022-07-31T08:27:40.356Z,28.25
2022-07-31T08:28:32.681Z,28.27
2022-07-31T08:29:32.677Z,28.28
2022-07-31T08:30:32.663Z,28.28
2022-07-31T08:31:32.731Z,28.28
2022-07-31T08:32:32.698Z,28.30
2022-07-31T08:33:32.717Z,28.32
2022-07-31T08:34:32.753Z,28.30
2022-07-31T08:35:32.774Z,28.33
2022-07-31T08:36:32.804Z,28.33
2022-07-31T08:37:51.869Z,28.35
2022-07-31T08:38:32.812Z,28.36
2022-07-31T08:39:32.851Z,28.36
2022-07-31T08:40:42.753Z,28.38
2022-07-31T08:41:32.889Z,28.39
2022-07-31T08:42:32.884Z,28.39
2022-07-31T08:44:00.396Z,28.39
2022-07-31T08:44:32.886Z,28.39
2022-07-31T08:45:35.393Z,28.39
2022-07-31T08:46:32.931Z,28.42
2022-07-31T08:47:32.956Z,28.40
2022-07-31T08:48:32.991Z,28.42
2022-07-31T08:49:33.067Z,28.43
2022-07-31T08:50:32.989Z,28.42
2022-07-31T08:51:33.015Z,28.43
2022-07-31T08:52:33.047Z,28.45
2022-07-31T08:53:33.098Z,28.45
2022-07-31T08:54:33.127Z,28.46
2022-07-31T08:55:56.722Z,28.45
2022-07-31T08:56:33.110Z,28.48
2022-07-31T08:57:33.094Z,28.46
2022-07-31T08:58:37.257Z,28.46
2022-07-31T08:59:33.144Z,28.46
2022-07-31T09:00:33.193Z,28.48
2022-07-31T09:01:33.202Z,28.46
2022-07-31T09:02:33.188Z,28.46
2022-07-31T09:03:33.216Z,28.45
2022-07-31T09:04:33.192Z,28.46
2022-07-31T09:05:42.424Z,28.45
2022-07-31T09:06:33.263Z,28.43
2022-07-31T09:07:33.276Z,28.42
2022-07-31T09:08:33.293Z,28.42
2022-07-31T09:09:41.256Z,28.40
2022-07-31T09:10:33.372Z,28.40
2022-07-31T09:11:33.341Z,28.40
2022-07-31T09:12:34.672Z,28.40
2022-07-31T09:13:33.400Z,28.42
2022-07-31T09:14:33.379Z,28.42
2022-07-31T09:15:33.484Z,28.43
2022-07-31T09:16:33.430Z,28.45
2022-07-31T09:17:33.450Z,28.46
2022-07-31T09:18:33.489Z,28.45
2022-07-31T09:19:52.957Z,28.48
2022-07-31T09:20:33.489Z,28.48
2022-07-31T09:21:33.528Z,28.51
2022-07-31T09:22:33.549Z,28.51
2022-07-31T09:23:33.591Z,28.52
2022-07-31T09:24:36.991Z,28.54
2022-07-31T09:25:33.633Z,28.55
2022-07-31T09:26:33.645Z,28.55
2022-07-31T09:27:33.666Z,28.55
2022-07-31T09:28:33.711Z,28.55
2022-07-31T09:29:33.673Z,28.58
2022-07-31T09:30:33.673Z,28.58
2022-07-31T09:31:33.681Z,28.60
2022-07-31T09:32:33.730Z,28.61
2022-07-31T09:33:33.708Z,28.62
2022-07-31T09:34:33.721Z,28.62
2022-07-31T09:35:33.744Z,28.64
2022-07-31T09:36:33.718Z,28.62
2022-07-31T09:37:33.713Z,28.65
2022-07-31T09:38:33.741Z,28.62
2022-07-31T09:39:35.946Z,28.62
2022-07-31T09:40:33.757Z,28.61
2022-07-31T09:42:02.088Z,28.60
2022-07-31T09:42:33.798Z,28.61
2022-07-31T09:43:33.772Z,28.58
2022-07-31T09:44:33.795Z,28.60
2022-07-31T09:45:33.804Z,28.58
2022-07-31T09:46:33.805Z,28.60
2022-07-31T09:47:33.823Z,28.60
2022-07-31T09:48:33.862Z,28.57
2022-07-31T09:49:33.943Z,28.58
2022-07-31T09:50:33.912Z,28.55
2022-07-31T09:51:33.950Z,28.54
2022-07-31T09:52:33.955Z,28.55
2022-07-31T09:53:33.953Z,28.55
2022-07-31T09:54:33.986Z,28.55
2022-07-31T09:55:34.034Z,28.55
2022-07-31T09:56:34.001Z,28.55
2022-07-31T09:57:34.008Z,28.55
2022-07-31T09:58:34.031Z,28.55
2022-07-31T09:59:34.061Z,28.55
2022-07-31T10:00:34.167Z,28.54
2022-07-31T10:01:34.159Z,28.54
2022-07-31T10:02:34.113Z,28.55
2022-07-31T10:03:34.130Z,28.55
2022-07-31T10:04:34.166Z,28.55
2022-07-31T10:05:34.181Z,28.55
2022-07-31T10:06:34.214Z,28.55
2022-07-31T10:07:34.207Z,28.57
2022-07-31T10:08:34.236Z,28.55
2022-07-31T10:09:34.251Z,28.55
2022-07-31T10:10:34.270Z,28.57
2022-07-31T10:11:34.302Z,28.57
2022-07-31T10:12:34.315Z,28.57
2022-07-31T10:13:34.335Z,28.58
2022-07-31T10:14:34.393Z,28.58
2022-07-31T10:15:34.372Z,28.60
2022-07-31T10:16:34.384Z,28.60
2022-07-31T10:17:36.180Z,28.61
2022-07-31T10:18:36.002Z,28.64
2022-07-31T10:19:34.430Z,28.67
2022-07-31T10:20:34.452Z,28.70
2022-07-31T10:21:34.474Z,28.74
2022-07-31T10:22:34.490Z,28.76
2022-07-31T10:23:34.520Z,28.77
2022-07-31T10:24:34.553Z,28.77
2022-07-31T10:25:34.550Z,28.82
2022-07-31T10:26:59.362Z,28.82
2022-07-31T10:27:37.868Z,28.87
2022-07-31T10:28:34.615Z,28.89
2022-07-31T10:29:34.642Z,28.92
2022-07-31T10:30:34.678Z,28.92
2022-07-31T10:31:34.735Z,28.92
2022-07-31T10:32:34.713Z,28.94
2022-07-31T10:33:44.215Z,28.94
2022-07-31T10:34:34.916Z,28.97
2022-07-31T10:35:34.709Z,28.97
2022-07-31T10:36:34.721Z,29.00
2022-07-31T10:37:34.740Z,29.00
2022-07-31T10:38:38.269Z,29.03
2022-07-31T10:39:34.728Z,29.05
2022-07-31T10:40:34.759Z,29.05
2022-07-31T10:41:34.776Z,29.05
2022-07-31T10:42:34.774Z,29.05
2022-07-31T10:43:34.819Z,29.03
2022-07-31T10:44:38.464Z,29.02
2022-07-31T10:45:34.835Z,29.00
2022-07-31T10:46:34.927Z,29.00
2022-07-31T10:47:34.885Z,28.98
2022-07-31T10:48:34.868Z,29.02
2022-07-31T10:49:34.936Z,29.03
2022-07-31T10:50:34.936Z,29.03
2022-07-31T10:51:34.988Z,29.07
2022-07-31T10:52:35.011Z,29.05
2022-07-31T10:53:50.947Z,29.08
2022-07-31T10:54:34.971Z,29.10
2022-07-31T10:55:34.984Z,29.12
2022-07-31T10:56:34.998Z,29.15
2022-07-31T10:57:35.045Z,29.18
2022-07-31T10:58:35.066Z,29.23
2022-07-31T10:59:35.099Z,29.25
2022-07-31T11:00:35.134Z,29.26
2022-07-31T11:01:35.186Z,29.26
2022-07-31T11:02:35.129Z,29.27
2022-07-31T11:03:35.142Z,29.29
2022-07-31T11:04:35.160Z,29.27
2022-07-31T11:06:02.189Z,29.27
2022-07-31T11:06:35.221Z,29.27
2022-07-31T11:07:35.254Z,29.27
2022-07-31T11:08:35.271Z,29.27
2022-07-31T11:09:51.059Z,29.26
2022-07-31T11:10:35.317Z,29.26
2022-07-31T11:11:35.334Z,29.26
2022-07-31T11:12:35.356Z,29.25
2022-07-31T11:13:37.229Z,29.23
2022-07-31T11:14:35.412Z,29.23
2022-07-31T11:15:35.401Z,29.20
2022-07-31T11:16:35.424Z,29.21
2022-07-31T11:18:22.388Z,29.21
2022-07-31T11:18:35.470Z,29.21
2022-07-31T11:19:35.515Z,29.26
2022-07-31T11:20:35.479Z,29.26
2022-07-31T11:21:38.917Z,29.26
2022-07-31T11:22:35.488Z,29.26
2022-07-31T11:23:35.499Z,29.27
2022-07-31T11:24:35.517Z,29.27
2022-07-31T11:25:35.551Z,29.27
2022-07-31T11:26:41.712Z,29.29
2022-07-31T11:27:35.597Z,29.27
2022-07-31T11:28:35.628Z,29.27
2022-07-31T11:29:59.398Z,29.26
2022-07-31T11:30:35.662Z,29.26
2022-07-31T11:31:35.662Z,29.26
2022-07-31T11:32:35.707Z,29.27
2022-07-31T11:33:41.946Z,29.29
2022-07-31T11:34:35.753Z,29.30
2022-07-31T11:35:35.770Z,29.30
2022-07-31T11:36:35.789Z,29.32
2022-07-31T11:37:46.249Z,29.33
2022-07-31T11:38:35.833Z,29.32
2022-07-31T11:39:36.784Z,29.35
2022-07-31T11:40:35.830Z,29.35
2022-07-31T11:41:39.783Z,29.41
2022-07-31T11:42:36.381Z,29.42
2022-07-31T11:43:35.849Z,29.47
2022-07-31T11:44:35.874Z,29.52
2022-07-31T11:45:35.889Z,29.55
2022-07-31T11:46:35.899Z,29.62
2022-07-31T11:48:11.465Z,29.64
2022-07-31T11:48:41.036Z,29.54
2022-07-31T11:49:47.689Z,29.45
2022-07-31T11:50:36.124Z,29.35
2022-07-31T11:51:35.984Z,29.32
2022-07-31T11:52:37.620Z,29.27
2022-07-31T11:53:36.039Z,29.23
2022-07-31T11:54:36.047Z,29.21
2022-07-31T11:55:36.038Z,29.18
2022-07-31T11:56:36.063Z,29.14
2022-07-31T11:57:51.434Z,29.11
2022-07-31T11:58:36.085Z,29.11
2022-07-31T11:59:44.912Z,29.07
2022-07-31T12:00:36.119Z,29.05
2022-07-31T12:01:36.140Z,29.05
2022-07-31T12:02:36.199Z,29.03
2022-07-31T12:03:36.328Z,29.00
2022-07-31T12:04:36.187Z,28.98
2022-07-31T12:05:38.812Z,28.95
2022-07-31T12:06:36.615Z,28.92
2022-07-31T12:07:36.210Z,28.92
2022-07-31T12:08:36.204Z,28.91
2022-07-31T12:10:02.385Z,28.89
2022-07-31T12:10:36.273Z,28.87
2022-07-31T12:11:36.274Z,28.88
2022-07-31T12:12:36.348Z,28.87
2022-07-31T12:13:36.304Z,28.85
2022-07-31T12:14:36.298Z,28.83
2022-07-31T12:15:36.328Z,28.82
2022-07-31T12:16:36.355Z,28.80
2022-07-31T12:17:36.383Z,28.82
2022-07-31T12:18:36.381Z,28.80
2022-07-31T12:19:37.442Z,28.79
2022-07-31T12:20:37.227Z,28.79
2022-07-31T12:21:36.403Z,28.77
2022-07-31T12:22:36.442Z,28.76
2022-07-31T12:23:40.232Z,28.76
2022-07-31T12:24:36.409Z,28.74
2022-07-31T12:25:36.442Z,28.73
2022-07-31T12:26:36.463Z,28.73
2022-07-31T12:27:36.506Z,28.72
2022-07-31T12:28:36.543Z,28.70
2022-07-31T12:29:36.514Z,28.72
2022-07-31T12:30:36.511Z,28.69
2022-07-31T12:31:36.534Z,28.69
2022-07-31T12:32:36.591Z,28.67
2022-07-31T12:33:36.565Z,28.67
2022-07-31T12:34:36.601Z,28.65
2022-07-31T12:35:54.486Z,28.65
2022-07-31T12:36:36.617Z,28.64
2022-07-31T12:37:36.647Z,28.64
2022-07-31T12:38:40.922Z,28.62
2022-07-31T12:39:53.757Z,28.61
2022-07-31T12:40:36.684Z,28.61
2022-07-31T12:41:36.711Z,28.60
2022-07-31T12:42:41.669Z,28.58
2022-07-31T12:43:36.746Z,28.58
2022-07-31T12:44:36.775Z,28.58
2022-07-31T12:45:36.789Z,28.58
2022-07-31T12:46:36.838Z,28.57
2022-07-31T12:47:36.806Z,28.57
2022-07-31T12:48:41.084Z,28.57
2022-07-31T12:49:36.865Z,28.55
2022-07-31T12:50:36.858Z,28.57
2022-07-31T12:51:45.415Z,28.57
2022-07-31T12:52:36.926Z,28.54